createdAt,value
2022-12-09T00:02:04.621Z,4.39
2022-12-09T00:06:08.512Z,4.36
2022-12-09T00:10:10.473Z,4.32
2022-12-09T00:14:12.640Z,4.31
2022-12-09T00:18:14.479Z,4.26
2022-12-09T00:22:16.076Z,4.24
2022-12-09T00:26:18.968Z,4.21
2022-12-09T00:30:20.983Z,4.18
2022-12-09T00:34:22.611Z,4.14
2022-12-09T00:38:24.403Z,4.14
2022-12-09T00:42:26.177Z,4.11
2022-12-09T00:46:28.029Z,4.10
2022-12-09T00:50:29.649Z,4.07
2022-12-09T00:54:31.473Z,4.06
2022-12-09T00:58:33.918Z,4.04
2022-12-09T01:02:37.300Z,4.02
2022-12-09T01:06:39.481Z,3.98
2022-12-09T01:10:42.548Z,3.92
2022-12-09T01:14:44.140Z,3.82
2022-12-09T01:18:46.115Z,3.78
2022-12-09T01:22:48.299Z,3.72
2022-12-09T01:26:50.169Z,3.70
2022-12-09T01:30:54.336Z,3.68
2022-12-09T01:34:55.957Z,3.68
2022-12-09T01:38:59.996Z,3.67
2022-12-09T01:43:01.920Z,3.67
2022-12-09T01:47:03.934Z,3.64
2022-12-09T01:51:12.430Z,3.64
2022-12-09T01:55:14.648Z,3.64
2022-12-09T01:59:16.663Z,3.68
2022-12-09T02:03:19.273Z,3.70
2022-12-09T02:07:21.241Z,3.68
2022-12-09T02:11:37.560Z,3.54
2022-12-09T02:15:48.110Z,3.46
2022-12-09T02:20:09.400Z,3.45
2022-12-09T02:24:20.128Z,3.42
2022-12-09T02:28:35.958Z,3.39
2022-12-09T02:32:43.106Z,3.37
2022-12-09T02:37:04.498Z,3.31
2022-12-09T02:41:21.880Z,3.30
2022-12-09T02:45:28.073Z,3.26
2022-12-09T02:49:31.927Z,3.19
2022-12-09T02:53:37.442Z,3.15
2022-12-09T02:57:40.773Z,3.12
2022-12-09T03:02:03.440Z,3.05
2022-12-09T03:06:09.028Z,3.04
2022-12-09T03:10:25.258Z,2.97
2022-12-09T03:14:32.303Z,2.92
2022-12-09T03:18:36.054Z,2.89
2022-12-09T03:22:40.101Z,2.84
2022-12-09T03:26:43.083Z,2.79
2022-12-09T03:30:46.072Z,2.79
2022-12-09T03:34:51.507Z,2.76
2022-12-09T03:38:53.680Z,2.73
2022-12-09T03:43:00.307Z,2.69
2022-12-09T03:47:04.424Z,2.71
2022-12-09T03:51:13.138Z,2.69
2022-12-09T03:55:57.664Z,2.77
2022-12-09T04:00:01.704Z,2.81
2022-12-09T04:04:03.791Z,2.86
2022-12-09T04:08:05.712Z,2.87
2022-12-09T04:12:07.635Z,2.90
2022-12-09T04:16:10.016Z,2.89
2022-12-09T04:20:13.187Z,2.89
2022-12-09T04:24:17.350Z,2.90
2022-12-09T04:28:18.928Z,2.92
2022-12-09T04:32:20.610Z,2.94
2022-12-09T04:36:22.631Z,2.90
2022-12-09T04:40:25.932Z,2.86
2022-12-09T04:44:27.471Z,2.74
2022-12-09T04:48:29.359Z,2.71
2022-12-09T04:52:31.991Z,2.63
2022-12-09T04:56:33.881Z,2.59
2022-12-09T05:00:35.568Z,2.45
2022-12-09T05:04:37.731Z,2.41
2022-12-09T05:08:40.644Z,2.40
2022-12-09T05:12:42.632Z,2.33
2022-12-09T05:16:44.700Z,2.33
2022-12-09T05:20:46.571Z,2.27
2022-12-09T05:24:48.225Z,2.22
2022-12-09T05:28:51.135Z,2.20
2022-12-09T05:32:53.106Z,2.19
2022-12-09T05:36:55.452Z,2.15
2022-12-09T05:40:59.557Z,2.09
2022-12-09T05:45:01.214Z,2.04
2022-12-09T05:49:03.111Z,2.02
2022-12-09T05:53:05.661Z,2.01
2022-12-09T05:57:07.366Z,1.98
2022-12-09T06:01:10.178Z,1.90
2022-12-09T06:05:12.221Z,1.88
2022-12-09T06:09:14.081Z,1.86
2022-12-09T06:13:15.891Z,1.82
2022-12-09T06:17:18.005Z,1.81
2022-12-09T06:21:21.204Z,1.72
2022-12-09T06:25:23.374Z,1.71
2022-12-09T06:29:25.168Z,1.68
2022-12-09T06:33:53.496Z,1.60
2022-12-09T06:37:51.769Z,1.61
2022-12-09T06:41:53.414Z,1.57
2022-12-09T06:45:55.323Z,1.60
2022-12-09T06:50:02.595Z,1.61
2022-12-09T06:54:09.733Z,1.61
2022-12-09T06:58:11.265Z,1.57
2022-12-09T07:02:13.366Z,1.60
2022-12-09T07:06:36.607Z,1.57
2022-12-09T07:10:39.276Z,1.56
2022-12-09T07:14:41.241Z,1.52
2022-12-09T07:18:43.121Z,1.50
2022-12-09T07:22:44.837Z,1.52
2022-12-09T07:26:46.999Z,1.53
2022-12-09T07:30:48.818Z,1.56
2022-12-09T07:34:50.454Z,1.54
2022-12-09T07:39:00.553Z,1.53
2022-12-09T07:43:02.513Z,1.49
2022-12-09T07:47:05.520Z,1.52
2022-12-09T07:51:08.061Z,1.57
2022-12-09T07:55:10.729Z,1.56
2022-12-09T07:59:14.532Z,1.60
2022-12-09T08:03:16.299Z,1.56
2022-12-09T08:07:18.429Z,1.57
2022-12-09T08:11:24.409Z,1.67
2022-12-09T08:15:26.173Z,1.65
2022-12-09T08:19:27.970Z,1.68
2022-12-09T08:23:29.690Z,1.70
2022-12-09T08:27:31.769Z,1.70
2022-12-09T08:31:38.800Z,1.71
2022-12-09T08:35:43.267Z,1.74
2022-12-09T08:39:45.007Z,1.81
2022-12-09T08:43:47.640Z,1.85
2022-12-09T08:47:50.676Z,1.85
2022-12-09T08:51:53.634Z,1.88
2022-12-09T08:55:55.867Z,1.92
2022-12-09T08:59:57.836Z,1.92
2022-12-09T09:04:07.596Z,1.93
2022-12-09T09:08:09.813Z,1.93
2022-12-09T09:12:11.432Z,2.01
2022-12-09T09:16:16.682Z,2.01
2022-12-09T09:20:19.159Z,2.12
2022-12-09T09:24:24.505Z,2.12
2022-12-09T09:28:30.983Z,2.22
2022-12-09T09:32:33.810Z,2.30
2022-12-09T09:36:35.619Z,2.37
2022-12-09T09:40:40.769Z,2.41
2022-12-09T09:44:51.580Z,2.47
2022-12-09T09:48:55.511Z,2.51
2022-12-09T09:52:57.738Z,2.51
2022-12-09T09:57:33.303Z,2.59
2022-12-09T10:01:37.601Z,2.65
2022-12-09T10:05:58.585Z,2.65
2022-12-09T10:10:14.948Z,2.65
2022-12-09T10:14:28.587Z,2.65
2022-12-09T10:18:41.611Z,2.74
2022-12-09T10:22:49.712Z,2.81
2022-12-09T10:27:20.548Z,2.87
2022-12-09T10:31:22.722Z,2.92
2022-12-09T10:35:28.067Z,2.98
2022-12-09T10:39:30.508Z,3.02
2022-12-09T10:43:46.770Z,3.12
2022-12-09T10:47:53.205Z,3.15
2022-12-09T10:51:55.568Z,3.26
2022-12-09T10:55:59.711Z,3.31
2022-12-09T11:00:21.721Z,3.35
2022-12-09T11:04:41.847Z,3.44
2022-12-09T11:08:51.555Z,3.52
2022-12-09T11:12:57.312Z,3.59
2022-12-09T11:17:11.439Z,3.68
2022-12-09T11:21:36.859Z,3.78
2022-12-09T11:25:50.417Z,3.88
2022-12-09T11:30:13.780Z,4.00
2022-12-09T11:34:26.283Z,4.11
2022-12-09T11:38:31.677Z,4.14
2022-12-09T11:42:33.539Z,4.20
2022-12-09T11:46:35.140Z,4.24
2022-12-09T11:50:42.408Z,4.25
2022-12-09T11:54:57.343Z,4.29
2022-12-09T11:59:09.164Z,4.38
2022-12-09T12:03:44.758Z,4.46
2022-12-09T12:08:05.998Z,4.54
2022-12-09T12:12:28.784Z,4.62
2022-12-09T12:16:39.740Z,4.77
2022-12-09T12:20:56.783Z,4.90
2022-12-09T12:25:26.644Z,4.86
2022-12-09T12:29:37.879Z,4.90
2022-12-09T12:34:23.413Z,4.87
2022-12-09T12:38:34.215Z,4.91
2022-12-09T12:43:23.833Z,4.90
2022-12-09T12:47:35.349Z,4.93
2022-12-09T12:51:39.747Z,4.94
2022-12-09T12:56:07.233Z,4.91
2022-12-09T13:00:21.870Z,4.93
2022-12-09T13:04:44.865Z,4.94
2022-12-09T13:08:59.727Z,4.93
2022-12-09T13:13:06.853Z,4.97
2022-12-09T13:17:13.218Z,4.94
2022-12-09T13:21:16.087Z,4.90
2022-12-09T13:25:20.363Z,4.88
2022-12-09T13:29:31.157Z,4.84
2022-12-09T13:34:02.432Z,4.80
2022-12-09T13:38:04.475Z,4.80
2022-12-09T13:42:46.943Z,4.83
2022-12-09T13:46:49.131Z,4.71
2022-12-09T13:50:56.067Z,4.68
2022-12-09T13:54:58.214Z,4.61
2022-12-09T13:59:30.763Z,4.54
2022-12-09T14:03:35.359Z,4.43
2022-12-09T14:07:37.075Z,4.39
2022-12-09T14:11:38.655Z,4.35
2022-12-09T14:15:40.600Z,4.32
2022-12-09T14:19:53.247Z,4.29
2022-12-09T14:24:16.254Z,4.24
2022-12-09T14:28:33.978Z,4.17
2022-12-09T14:32:52.996Z,4.11
2022-12-09T14:37:03.800Z,4.06
2022-12-09T14:41:24.011Z,3.98
2022-12-09T14:45:48.720Z,3.92
2022-12-09T14:49:52.215Z,3.88
2022-12-09T14:54:00.310Z,3.84
2022-12-09T14:58:02.140Z,3.88
2022-12-09T15:02:09.650Z,3.89
2022-12-09T15:06:18.248Z,3.90
2022-12-09T15:10:36.396Z,3.92
2022-12-09T15:14:38.904Z,3.93
2022-12-09T15:18:43.153Z,3.93
2022-12-09T15:22:52.824Z,3.92
2022-12-09T15:27:00.312Z,3.90
2022-12-09T15:31:06.104Z,3.92
2022-12-09T15:35:21.007Z,3.93
2022-12-09T15:39:38.017Z,3.92
2022-12-09T15:43:41.819Z,3.92
2022-12-09T15:47:51.721Z,3.93
2022-12-09T15:51:55.993Z,3.93
2022-12-09T15:56:00.000Z,3.92
2022-12-09T16:00:01.711Z,3.93
2022-12-09T16:04:05.866Z,3.95
2022-12-09T16:08:07.615Z,3.96
2022-12-09T16:12:31.683Z,3.96
2022-12-09T16:16:43.250Z,3.93
2022-12-09T16:21:15.712Z,3.95
2022-12-09T16:25:23.840Z,3.95
2022-12-09T16:29:27.072Z,3.96
2022-12-09T16:33:34.089Z,3.98
2022-12-09T16:38:03.878Z,3.98
2022-12-09T16:42:21.005Z,3.96
2022-12-09T16:46:28.357Z,3.96
2022-12-09T16:50:32.597Z,3.96
2022-12-09T16:54:34.389Z,3.93
2022-12-09T16:58:36.155Z,3.90
2022-12-09T17:02:42.451Z,3.90
2022-12-09T17:06:44.070Z,3.89
2022-12-09T17:10:45.642Z,3.89
2022-12-09T17:14:47.263Z,3.88
2022-12-09T17:18:49.463Z,3.86
2022-12-09T17:22:51.185Z,3.86
2022-12-09T17:26:52.881Z,3.88
2022-12-09T17:30:54.455Z,3.88
2022-12-09T17:34:56.317Z,3.86
2022-12-09T17:39:02.509Z,3.81
2022-12-09T17:43:04.168Z,3.81
2022-12-09T17:47:05.772Z,3.82
2022-12-09T17:51:13.368Z,3.80
2022-12-09T17:55:14.907Z,3.80
2022-12-09T17:59:17.521Z,3.75
2022-12-09T18:03:39.321Z,3.74
2022-12-09T18:07:40.848Z,3.72
2022-12-09T18:11:43.408Z,3.70
2022-12-09T18:15:48.515Z,3.68
2022-12-09T18:19:53.665Z,3.68
2022-12-09T18:23:55.237Z,3.67
2022-12-09T18:27:56.750Z,3.67
2022-12-09T18:31:58.315Z,3.63
2022-12-09T18:36:00.000Z,3.63
2022-12-09T18:40:01.535Z,3.64
2022-12-09T18:44:07.438Z,3.64
2022-12-09T18:48:08.969Z,3.62
2022-12-09T18:52:10.569Z,3.62
2022-12-09T18:56:12.470Z,3.62
2022-12-09T19:00:14.343Z,3.62
2022-12-09T19:04:19.500Z,3.62
2022-12-09T19:08:21.376Z,3.63
2022-12-09T19:12:46.563Z,3.64
2022-12-09T19:16:45.339Z,3.60
2022-12-09T19:20:48.166Z,3.62
2022-12-09T19:24:49.793Z,3.62
2022-12-09T19:28:57.003Z,3.64
2022-12-09T19:32:58.558Z,3.62
2022-12-09T19:37:00.958Z,3.64
2022-12-09T19:41:02.942Z,3.63
2022-12-09T19:45:07.892Z,3.62
2022-12-09T19:49:14.349Z,3.59
2022-12-09T19:53:15.844Z,3.57
2022-12-09T19:57:17.416Z,3.59
2022-12-09T20:01:26.258Z,3.59
2022-12-09T20:05:27.961Z,3.60
2022-12-09T20:09:29.734Z,3.60
2022-12-09T20:13:32.160Z,3.57
2022-12-09T20:17:34.079Z,3.59
2022-12-09T20:21:37.557Z,3.54
2022-12-09T20:25:39.576Z,3.56
2022-12-09T20:29:41.190Z,3.56
2022-12-09T20:33:43.061Z,3.54
2022-12-09T20:37:44.673Z,3.52
2022-12-09T20:41:46.825Z,3.53
2022-12-09T20:45:48.423Z,3.52
2022-12-09T20:49:50.034Z,3.50
2022-12-09T20:53:52.377Z,3.52
2022-12-09T20:57:53.980Z,3.54
2022-12-09T21:01:55.934Z,3.54
2022-12-09T21:06:00.384Z,3.50
2022-12-09T21:10:02.019Z,3.52
2022-12-09T21:14:06.731Z,3.44
2022-12-09T21:18:08.304Z,3.44
2022-12-09T21:22:09.829Z,3.41
2022-12-09T21:26:14.053Z,3.42
2022-12-09T21:30:15.722Z,3.41
2022-12-09T21:34:17.708Z,3.39
2022-12-09T21:38:19.270Z,3.41
2022-12-09T21:42:20.874Z,3.41
2022-12-09T21:46:25.247Z,3.37
2022-12-09T21:50:26.831Z,3.34
2022-12-09T21:54:28.508Z,3.35
2022-12-09T21:58:33.854Z,3.35
2022-12-09T22:02:35.572Z,3.33
2022-12-09T22:06:37.808Z,3.30
2022-12-09T22:10:39.512Z,3.31
2022-12-09T22:14:41.123Z,3.31
2022-12-09T22:18:43.154Z,3.28
2022-12-09T22:22:44.812Z,3.30
2022-12-09T22:26:47.116Z,3.33
2022-12-09T22:30:48.783Z,3.31
2022-12-09T22:34:50.495Z,3.33
2022-12-09T22:38:53.524Z,3.34
2022-12-09T22:42:55.133Z,3.33
2022-12-09T22:46:56.739Z,3.30
2022-12-09T22:51:03.721Z,3.28
2022-12-09T22:55:06.347Z,3.26
2022-12-09T22:59:08.159Z,3.26
2022-12-09T23:03:09.815Z,3.28
2022-12-09T23:07:11.426Z,3.30
2022-12-09T23:11:19.067Z,3.30
2022-12-09T23:15:20.720Z,3.30
2022-12-09T23:19:22.335Z,3.33
2022-12-09T23:23:23.955Z,3.26
2022-12-09T23:27:25.467Z,3.26
2022-12-09T23:31:29.827Z,3.25
2022-12-09T23:35:31.490Z,3.23
2022-12-09T23:39:33.009Z,3.26
2022-12-09T23:43:36.961Z,3.25
2022-12-09T23:47:38.630Z,3.25
2022-12-09T23:51:41.564Z,3.25
2022-12-09T23:55:43.116Z,3.26
2022-12-09T23:59:44.668Z,3.28
